Time;durP1;ratioP1;P1;durP2;ratioP2;P2;SDS_P1;SDS_P2;PMS_P1;PMS_P2;Temp;Humidity;BMP_temperature;BMP_pressure;BME280_temperature;BME280_humidity;BME280_pressure;Samples;Min_cycle;Max_cycle;Signal;HPM_P1;HPM_P2
2023/07/11 00:00:56;;;;;;;4.00;2.05;;;;;;;17.08;72.80;99702.38;4983540;28;20057;-39
2023/07/11 00:03:23;;;;;;;4.95;1.35;;;;;;;17.09;71.92;99693.59;4987393;28;20054;-41
2023/07/11 00:06:09;;;;;;;2.90;1.35;;;;;;;17.03;72.22;99692.06;4986086;28;20046;-43
2023/07/11 00:08:36;;;;;;;4.20;1.20;;;;;;;17.08;72.42;99681.44;4980515;28;20047;-42
2023/07/11 00:11:07;;;;;;;4.95;0.93;;;;;;;17.11;72.29;99680.47;4992839;28;20129;-45
2023/07/11 00:13:34;;;;;;;2.53;0.95;;;;;;;17.09;72.78;99672.66;4987129;28;20466;-48
2023/07/11 00:16:06;;;;;;;4.63;1.15;;;;;;;17.10;72.70;99658.69;4982568;28;20054;-40
2023/07/11 00:18:34;;;;;;;3.85;0.90;;;;;;;17.12;72.45;99656.03;4983549;28;20046;-49
2023/07/11 00:21:02;;;;;;;3.55;1.42;;;;;;;17.10;72.36;99650.84;4982701;28;20374;-45
2023/07/11 00:23:28;;;;;;;4.78;1.08;;;;;;;17.10;72.91;99637.78;4983281;28;20069;-47
2023/07/11 00:25:55;;;;;;;2.53;0.85;;;;;;;17.08;73.41;99639.56;4988014;28;20042;-51
2023/07/11 00:28:22;;;;;;;5.53;1.15;;;;;;;17.09;73.09;99630.81;4987552;28;20050;-47
2023/07/11 00:30:49;;;;;;;5.45;0.90;;;;;;;17.09;73.35;99630.81;4983063;28;20054;-49
2023/07/11 00:33:16;;;;;;;2.63;0.68;;;;;;;17.11;73.02;99613.31;4983112;28;20046;-41
2023/07/11 00:35:45;;;;;;;3.78;0.82;;;;;;;17.12;73.97;99617.63;4982861;28;20042;-43
2023/07/11 00:38:13;;;;;;;2.15;0.65;;;;;;;17.09;74.30;99602.03;4984612;28;20072;-45
2023/07/11 00:40:42;;;;;;;2.20;0.65;;;;;;;17.11;74.53;99592.38;4983387;28;20046;-44
2023/07/11 00:43:11;;;;;;;1.17;0.98;;;;;;;17.14;75.21;99605.34;4983752;28;20073;-46
2023/07/11 00:48:37;;;;;;;3.65;2.08;;;;;;;17.16;75.33;99587.81;5094832;27;20388;-49
2023/07/11 00:51:07;;;;;;;3.50;2.30;;;;;;;17.17;75.83;99575.59;5034976;28;20498;-51
2023/07/11 00:53:38;;;;;;;3.53;2.03;;;;;;;17.19;76.35;99585.09;5055684;28;20041;-49
2023/07/11 00:56:08;;;;;;;2.28;2.08;;;;;;;17.22;76.43;99573.66;5053872;28;20072;-47
2023/07/11 00:58:39;;;;;;;3.15;2.67;;;;;;;17.26;75.86;99563.94;5052388;28;20110;-49
2023/07/11 01:01:07;;;;;;;4.55;2.28;;;;;;;17.28;76.65;99559.47;5055148;28;20111;-44
2023/07/11 01:03:34;;;;;;;2.88;1.00;;;;;;;17.31;76.60;99562.84;5053465;28;20483;-50
2023/07/11 01:06:00;;;;;;;4.63;2.40;;;;;;;17.36;76.58;99556.56;5060232;28;20452;-46
2023/07/11 01:08:27;;;;;;;3.55;2.20;;;;;;;17.38;75.99;99555.59;5060485;28;20148;-45
2023/07/11 01:10:54;;;;;;;6.45;2.97;;;;;;;17.38;76.63;99539.91;5060066;28;20049;-42
2023/07/11 01:13:21;;;;;;;2.50;2.13;;;;;;;17.35;77.96;99524.31;5058381;28;20043;-45
2023/07/11 01:15:48;;;;;;;2.40;0.95;;;;;;;17.37;76.87;99513.78;5056822;28;20483;-48
2023/07/11 01:18:15;;;;;;;1.98;1.83;;;;;;;17.35;78.18;99516.44;5058968;28;20040;-52
2023/07/11 01:20:42;;;;;;;3.60;2.08;;;;;;;17.31;78.87;99509.63;5054381;28;20045;-50
2023/07/11 01:23:09;;;;;;;3.25;2.38;;;;;;;17.35;77.91;99508.59;5060308;28;20040;-43
2023/07/11 01:25:38;;;;;;;5.72;2.55;;;;;;;17.36;78.67;99507.69;5054017;28;20162;-43
2023/07/11 01:28:04;;;;;;;5.80;2.58;;;;;;;17.39;78.90;99499.72;5055866;28;20049;-47
2023/07/11 01:30:31;;;;;;;6.28;2.67;;;;;;;17.34;79.19;99488.56;5054666;28;20523;-47
2023/07/11 01:32:58;;;;;;;2.47;2.28;;;;;;;17.34;79.15;99478.09;5048873;28;20502;-46
2023/07/11 01:35:25;;;;;;;3.00;1.55;;;;;;;17.38;78.71;99482.31;5047202;28;20463;-48
2023/07/11 01:37:51;;;;;;;4.85;2.95;;;;;;;17.37;79.87;99477.13;5057366;28;20036;-48
2023/07/11 01:40:18;;;;;;;3.05;2.53;;;;;;;17.42;79.19;99483.03;5044951;28;20120;-44
2023/07/11 01:42:45;;;;;;;4.32;2.75;;;;;;;17.44;79.04;99473.34;5053317;28;20072;-47
2023/07/11 01:45:11;;;;;;;4.15;2.95;;;;;;;17.44;79.24;99468.97;5045666;28;20542;-45
2023/07/11 01:47:39;;;;;;;4.72;2.60;;;;;;;17.44;79.18;99474.22;5050588;28;20047;-50
2023/07/11 01:50:07;;;;;;;3.53;2.83;;;;;;;17.47;79.52;99463.59;5055821;28;20136;-46
2023/07/11 01:52:33;;;;;;;5.75;3.13;;;;;;;17.52;78.28;99454.69;5049686;28;20045;-55
2023/07/11 01:55:00;;;;;;;4.70;3.05;;;;;;;17.54;78.83;99447.66;5050450;28;20080;-49
2023/07/11 01:57:27;;;;;;;4.07;2.58;;;;;;;17.55;78.47;99450.22;5051663;28;20048;-48
2023/07/11 01:59:53;;;;;;;4.70;2.83;;;;;;;17.59;78.44;99445.69;5039567;28;20095;-46
2023/07/11 02:02:20;;;;;;;4.20;2.92;;;;;;;17.62;77.88;99435.09;5039941;28;20064;-44
2023/07/11 02:04:47;;;;;;;5.68;2.78;;;;;;;17.63;77.51;99434.16;5038229;28;20054;-49
2023/07/11 02:07:14;;;;;;;5.47;2.85;;;;;;;17.65;77.69;99439.34;5030871;28;20500;-47
2023/07/11 02:09:41;;;;;;;5.65;2.63;;;;;;;17.64;78.22;99435.88;5031907;28;20041;-48
2023/07/11 02:12:09;;;;;;;2.60;2.40;;;;;;;17.65;77.89;99434.97;5034996;28;20132;-47
2023/07/11 02:14:40;;;;;;;2.55;1.83;;;;;;;17.64;78.41;99417.56;5041148;28;20116;-43
2023/07/11 02:17:08;;;;;;;2.25;2.05;;;;;;;17.65;77.55;99421.88;5036167;28;20152;-44
2023/07/11 02:19:35;;;;;;;2.30;2.10;;;;;;;17.63;78.32;99426.31;5037756;28;20056;-43
2023/07/11 02:22:02;;;;;;;2.30;2.05;;;;;;;17.66;77.81;99420.94;5036466;28;20045;-46
2023/07/11 02:24:29;;;;;;;2.58;2.30;;;;;;;17.62;78.41;99427.22;5035665;28;20049;-47
2023/07/11 02:26:55;;;;;;;4.43;2.33;;;;;;;17.65;77.71;99423.63;5038637;28;20041;-44
2023/07/11 02:29:22;;;;;;;2.53;1.80;;;;;;;17.65;77.47;99423.63;5038753;28;20049;-50
2023/07/11 02:31:49;;;;;;;3.00;2.03;;;;;;;17.63;78.18;99426.31;5029549;28;20072;-46
2023/07/11 02:34:16;;;;;;;2.03;1.83;;;;;;;17.63;77.71;99415.84;5030960;28;20552;-43
2023/07/11 02:36:42;;;;;;;1.75;1.65;;;;;;;17.62;78.50;99414.13;5041552;28;20052;-45
2023/07/11 02:39:09;;;;;;;2.67;1.85;;;;;;;17.61;78.23;99417.69;5036176;28;20059;-52
2023/07/11 02:41:36;;;;;;;2.95;1.65;;;;;;;17.64;77.12;99411.47;5036660;28;20057;-47
2023/07/11 02:44:02;;;;;;;2.22;2.10;;;;;;;17.62;77.82;99408.91;5033174;28;20690;-51
2023/07/11 02:46:29;;;;;;;3.72;1.77;;;;;;;17.61;77.87;99417.69;5035776;28;20053;-45
2023/07/11 02:48:56;;;;;;;2.70;2.13;;;;;;;17.61;78.23;99412.44;5038052;28;20045;-50
2023/07/11 02:51:24;;;;;;;2.67;2.47;;;;;;;17.60;77.71;99403.72;5039935;28;20055;-48
2023/07/11 02:53:51;;;;;;;2.42;2.22;;;;;;;17.58;77.51;99396.84;5038314;28;20048;-54
2023/07/11 02:56:19;;;;;;;1.77;1.65;;;;;;;17.57;77.18;99405.63;5041151;28;20528;-50
2023/07/11 02:58:47;;;;;;;2.40;2.05;;;;;;;17.56;77.35;99398.72;5036689;28;20060;-52
2023/07/11 03:01:14;;;;;;;3.42;2.42;;;;;;;17.53;78.05;99390.97;5029173;28;20071;-43
2023/07/11 03:03:41;;;;;;;2.42;2.13;;;;;;;17.55;77.35;99407.44;5037459;28;20511;-51
2023/07/11 03:06:07;;;;;;;3.22;2.92;;;;;;;17.52;77.43;99402.34;5030938;28;20091;-47
2023/07/11 03:08:34;;;;;;;3.88;2.90;;;;;;;17.51;77.72;99392.78;5029319;28;20041;-50
2023/07/11 03:11:01;;;;;;;4.78;3.17;;;;;;;17.53;77.39;99399.66;5038771;28;20068;-48
2023/07/11 03:13:28;;;;;;;5.95;3.97;;;;;;;17.53;76.56;99378.72;5037136;28;20110;-48
2023/07/11 03:15:59;;;;;;;4.00;2.70;;;;;;;17.52;77.38;99377.03;5039925;28;20220;-43
2023/07/11 03:18:26;;;;;;;4.03;2.85;;;;;;;17.51;77.33;99379.69;5018295;28;20041;-48
2023/07/11 03:20:57;;;;;;;4.30;2.40;;;;;;;17.47;76.86;99369.34;5038477;28;20053;-48
2023/07/11 03:23:24;;;;;;;3.50;2.42;;;;;;;17.45;77.28;99371.19;5035545;28;20067;-43
2023/07/11 03:25:51;;;;;;;3.35;2.95;;;;;;;17.49;77.81;99381.56;5034491;28;20052;-44
2023/07/11 03:28:18;;;;;;;3.85;2.75;;;;;;;17.49;77.35;99376.31;5037801;28;20049;-56
2023/07/11 03:30:44;;;;;;;7.70;3.65;;;;;;;17.48;76.87;99380.69;5039892;28;20049;-48
2023/07/11 03:33:11;;;;;;;3.45;2.10;;;;;;;17.49;77.16;99387.63;5038858;28;20049;-44
2023/07/11 03:35:38;;;;;;;3.75;2.30;;;;;;;17.52;77.02;99386.63;5036837;28;20056;-49
2023/07/11 03:38:04;;;;;;;5.47;2.13;;;;;;;17.52;76.56;99386.63;5043055;28;20045;-48
2023/07/11 03:40:31;;;;;;;3.17;2.40;;;;;;;17.52;77.31;99391.88;5032077;28;20049;-48
2023/07/11 03:42:58;;;;;;;2.88;2.05;;;;;;;17.55;76.57;99391.75;5042008;28;20507;-44
2023/07/11 03:45:25;;;;;;;1.75;1.65;;;;;;;17.54;76.28;99384.81;5035903;28;20072;-51
2023/07/11 03:47:51;;;;;;;3.90;1.80;;;;;;;17.56;76.35;99388.22;5040665;28;20041;-51
2023/07/11 03:50:18;;;;;;;2.03;1.90;;;;;;;17.55;76.31;99399.59;5033977;28;20052;-49
2023/07/11 03:52:45;;;;;;;2.90;1.85;;;;;;;17.55;76.08;99386.50;5033428;28;20056;-47
2023/07/11 03:55:12;;;;;;;1.77;1.60;;;;;;;17.55;76.17;99396.97;5039101;28;20529;-47
2023/07/11 03:57:39;;;;;;;1.65;1.55;;;;;;;17.54;76.75;99397.91;5035412;28;20704;-49
2023/07/11 04:00:06;;;;;;;1.83;1.70;;;;;;;17.54;75.95;99405.75;5036900;28;20045;-50
2023/07/11 04:02:33;;;;;;;2.30;1.80;;;;;;;17.52;76.45;99394.50;5039493;28;20049;-44
2023/07/11 04:04:59;;;;;;;2.75;1.67;;;;;;;17.47;76.34;99398.16;5037028;28;20072;-51
2023/07/11 04:07:26;;;;;;;2.08;1.85;;;;;;;17.46;76.67;99399.06;5033569;28;20135;-45
2023/07/11 04:09:53;;;;;;;1.83;1.70;;;;;;;17.49;76.44;99407.72;5034963;28;20049;-49
2023/07/11 04:12:19;;;;;;;2.33;1.92;;;;;;;17.50;75.42;99401.56;5033508;28;21818;-49
2023/07/11 04:14:46;;;;;;;2.13;1.85;;;;;;;17.50;75.88;99405.06;5034108;28;20095;-48
2023/07/11 04:17:13;;;;;;;2.63;2.42;;;;;;;17.49;75.63;99407.72;5036872;28;20048;-51
2023/07/11 04:19:39;;;;;;;4.75;1.75;;;;;;;17.43;76.31;99404.44;5034781;28;20124;-50
2023/07/11 04:22:06;;;;;;;1.33;1.23;;;;;;;17.43;76.08;99409.66;5035438;28;20050;-44
2023/07/11 04:24:33;;;;;;;2.55;1.75;;;;;;;17.40;74.98;99415.06;5033278;28;20665;-49
2023/07/11 04:27:00;;;;;;;2.33;1.92;;;;;;;17.37;75.75;99404.72;5037903;28;20045;-50
2023/07/11 04:29:26;;;;;;;3.65;2.35;;;;;;;17.34;75.40;99415.28;5036240;28;20060;-52
2023/07/11 04:31:53;;;;;;;2.60;2.33;;;;;;;17.31;74.91;99410.19;5037236;28;20041;-43
2023/07/11 04:34:20;;;;;;;3.88;1.70;;;;;;;17.29;75.46;99401.56;5029575;28;20057;-44
2023/07/11 04:36:47;;;;;;;3.15;2.28;;;;;;;17.27;74.73;99411.22;5026281;28;20502;-47
2023/07/11 04:39:14;;;;;;;3.00;2.70;;;;;;;17.28;75.36;99402.44;5033474;28;20041;-45
2023/07/11 04:41:41;;;;;;;3.83;2.30;;;;;;;17.26;75.39;99409.53;5033377;28;20046;-46
2023/07/11 04:44:08;;;;;;;4.60;2.28;;;;;;;17.24;75.19;99424.44;5034566;28;20044;-51
2023/07/11 04:46:34;;;;;;;2.90;2.42;;;;;;;17.22;75.16;99427.09;5037007;28;20095;-44
2023/07/11 04:49:01;;;;;;;4.05;2.63;;;;;;;17.20;74.58;99423.72;5032923;28;20081;-49
2023/07/11 04:51:27;;;;;;;5.32;3.03;;;;;;;17.15;73.87;99423.03;5027608;28;20056;-42
2023/07/11 04:53:54;;;;;;;5.43;3.03;;;;;;;17.08;73.92;99414.56;5032959;28;20103;-42
2023/07/11 04:56:21;;;;;;;5.50;3.05;;;;;;;17.06;74.52;99416.41;5038658;28;20041;-53
2023/07/11 04:58:48;;;;;;;4.43;2.70;;;;;;;17.04;74.06;99412.97;5032589;28;20163;-50
2023/07/11 05:01:16;;;;;;;5.00;2.55;;;;;;;17.03;74.27;99421.75;5026650;28;20061;-44
2023/07/11 05:03:48;;;;;;;10.05;3.20;;;;;;;17.01;73.80;99449.72;5032568;28;20053;-49
2023/07/11 05:06:15;;;;;;;6.45;2.90;;;;;;;17.00;74.34;99459.34;5032391;28;20045;-49
2023/07/11 05:08:41;;;;;;;6.00;3.90;;;;;;;16.98;73.99;99457.69;5036160;28;20049;-47
2023/07/11 05:11:15;;;;;;;6.28;3.33;;;;;;;16.93;73.26;99457.88;5031927;28;20053;-41
2023/07/11 05:13:44;;;;;;;6.32;3.33;;;;;;;16.92;73.85;99441.31;5023904;28;20045;-52
2023/07/11 05:16:14;;;;;;;6.40;2.92;;;;;;;16.90;73.48;99445.75;5030950;28;20045;-47
2023/07/11 05:18:42;;;;;;;5.95;3.58;;;;;;;16.84;72.88;99459.06;5033589;28;20095;-47
2023/07/11 05:21:14;;;;;;;5.68;3.40;;;;;;;16.79;73.27;99466.25;5030805;28;20064;-47
2023/07/11 05:23:41;;;;;;;6.85;3.22;;;;;;;16.76;73.78;99455.91;5032626;28;20099;-45
2023/07/11 05:26:08;;;;;;;9.20;3.38;;;;;;;16.79;73.34;99440.94;5034010;28;20136;-46
2023/07/11 05:28:35;;;;;;;7.50;3.63;;;;;;;16.93;74.22;99427.31;5034138;28;20095;-49
2023/07/11 05:31:06;;;;;;;10.85;3.13;;;;;;;17.11;74.41;99442.38;5032003;28;20038;-44
2023/07/11 05:33:33;;;;;;;7.32;2.80;;;;;;;17.30;74.66;99432.03;5033882;28;20071;-52
2023/07/11 05:36:15;;;;;;;10.52;3.45;;;;;;;17.43;74.15;99433.22;5040321;28;20148;-50
2023/07/11 05:38:42;;;;;;;10.00;3.40;;;;;;;17.46;73.93;99448.81;5034223;28;20588;-52
2023/07/11 05:41:09;;;;;;;9.07;3.88;;;;;;;17.46;73.21;99461.91;5037497;28;20049;-47
2023/07/11 05:43:36;;;;;;;7.90;2.92;;;;;;;17.42;73.27;99447.22;5041718;28;20060;-49
2023/07/11 05:46:02;;;;;;;7.25;3.03;;;;;;;17.41;72.61;99436.81;5037960;28;20049;-43
2023/07/11 05:48:29;;;;;;;5.03;3.03;;;;;;;17.40;72.68;99451.69;5028272;28;20049;-42
2023/07/11 05:53:36;;;;;;;10.70;1.60;;;;;;;17.38;72.44;99437.81;5024115;28;20406;-52
2023/07/11 05:56:03;;;;;;;7.75;1.75;;;;;;;17.34;72.37;99449.31;5017282;28;20072;-45
2023/07/11 05:58:32;;;;;;;7.35;2.35;;;;;;;17.35;72.11;99445.78;5020083;28;20045;-48
2023/07/11 06:01:00;;;;;;;10.10;2.17;;;;;;;17.36;72.80;99431.78;5019108;28;20041;-47
2023/07/11 06:03:29;;;;;;;7.75;2.45;;;;;;;17.43;72.41;99446.31;5011428;28;20053;-45
2023/07/11 06:06:01;;;;;;;13.75;2.40;;;;;;;17.56;73.20;99451.91;5015140;28;20079;-46
2023/07/11 06:08:29;;;;;;;8.68;2.05;;;;;;;17.73;73.28;99453.81;5018960;28;20038;-41
2023/07/11 06:10:58;;;;;;;12.23;2.28;;;;;;;17.81;72.37;99452.66;5029027;28;20053;-55
2023/07/11 06:13:27;;;;;;;8.40;1.67;;;;;;;17.89;72.52;99463.66;5012383;28;20062;-48
2023/07/11 06:15:59;;;;;;;8.43;2.10;;;;;;;17.91;72.52;99451.34;5021416;28;20834;-55
2023/07/11 06:18:26;;;;;;;9.75;2.22;;;;;;;17.90;72.17;99452.25;5010577;28;20054;-48
2023/07/11 06:20:53;;;;;;;7.35;1.95;;;;;;;17.90;71.66;99449.63;5020605;28;20049;-46
2023/07/11 06:23:20;;;;;;;3.35;1.48;;;;;;;17.89;71.67;99458.41;5017368;28;20069;-50
2023/07/11 06:25:48;;;;;;;5.68;2.53;;;;;;;17.84;71.98;99460.38;5018285;28;20055;-49
2023/07/11 06:28:14;;;;;;;5.82;1.88;;;;;;;17.77;71.08;99462.41;5014925;28;20096;-47
2023/07/11 06:30:42;;;;;;;5.78;1.88;;;;;;;17.73;71.67;99458.19;5014469;28;20565;-48
2023/07/11 06:33:11;;;;;;;8.10;1.98;;;;;;;17.73;71.91;99463.44;5015820;28;20046;-48
2023/07/11 06:35:41;;;;;;;5.88;1.63;;;;;;;17.73;71.91;99461.66;5014140;28;20498;-45
2023/07/11 06:38:08;;;;;;;6.95;1.45;;;;;;;17.72;71.85;99454.75;5013533;28;20108;-43
2023/07/11 06:40:35;;;;;;;8.20;1.63;;;;;;;17.78;71.20;99455.38;5014521;28;20077;-50
2023/07/11 06:43:05;;;;;;;7.43;1.83;;;;;;;17.86;71.95;99463.78;5018257;28;20042;-53
2023/07/11 06:45:31;;;;;;;4.03;1.13;;;;;;;17.88;71.78;99467.19;5013648;28;20054;-45
2023/07/11 06:47:58;;;;;;;7.93;1.63;;;;;;;17.91;71.54;99464.44;5014558;28;20406;-48
2023/07/11 06:50:25;;;;;;;8.68;1.27;;;;;;;17.92;71.54;99470.50;5006712;28;20417;-45
2023/07/11 06:52:52;;;;;;;7.82;1.60;;;;;;;17.95;71.24;99458.16;5012560;28;20046;-48
2023/07/11 06:55:19;;;;;;;6.15;1.73;;;;;;;17.98;71.23;99446.69;5011184;28;20065;-53
2023/07/11 06:57:46;;;;;;;6.40;1.25;;;;;;;18.00;71.47;99476.28;5011221;28;20057;-46
2023/07/11 07:00:13;;;;;;;3.08;1.10;;;;;;;18.01;70.90;99479.75;5009823;28;20069;-48
2023/07/11 07:02:40;;;;;;;9.02;1.63;;;;;;;17.98;70.55;99479.00;5011489;28;20061;-47
2023/07/11 07:05:07;;;;;;;4.43;0.85;;;;;;;18.00;70.81;99486.75;4995404;28;20050;-52
2023/07/11 07:07:34;;;;;;;4.28;1.10;;;;;;;18.02;70.84;99470.97;4999681;28;20049;-47
2023/07/11 07:10:00;;;;;;;4.25;1.50;;;;;;;18.05;70.15;99460.38;5003822;28;20164;-53
2023/07/11 07:12:27;;;;;;;4.05;1.40;;;;;;;18.03;70.56;99454.34;4999864;28;20050;-48
2023/07/11 07:14:54;;;;;;;3.97;1.00;;;;;;;18.05;70.17;99462.97;5000673;28;20084;-48
2023/07/11 07:17:21;;;;;;;3.50;1.17;;;;;;;18.05;70.12;99469.09;4997083;28;20042;-47
2023/07/11 07:19:47;;;;;;;3.85;1.40;;;;;;;18.13;70.18;99474.00;5002506;28;20081;-46
2023/07/11 07:22:15;;;;;;;4.20;1.30;;;;;;;18.27;70.71;99483.88;4999854;28;20050;-48
2023/07/11 07:24:42;;;;;;;3.67;1.55;;;;;;;18.40;70.20;99478.97;4990656;28;20050;-46
2023/07/11 07:27:10;;;;;;;2.80;0.80;;;;;;;18.50;69.73;99489.88;5003655;28;20078;-51
2023/07/11 07:29:54;;;;;;;3.58;1.00;;;;;;;18.57;69.85;99485.22;4995341;28;20062;-51
2023/07/11 07:32:20;;;;;;;5.10;1.23;;;;;;;18.63;70.01;99477.06;5000312;28;20399;-47
2023/07/11 07:34:47;;;;;;;4.47;1.15;;;;;;;18.77;70.01;99489.56;4993730;28;20050;-53
2023/07/11 07:37:14;;;;;;;5.63;1.52;;;;;;;18.94;69.71;99483.53;5009447;28;20049;-45
2023/07/11 07:39:41;;;;;;;3.83;1.10;;;;;;;19.12;69.17;99486.25;5001829;28;20057;-53
2023/07/11 07:42:08;;;;;;;6.95;1.30;;;;;;;19.20;69.03;99491.97;5005846;28;20049;-45
2023/07/11 07:44:35;;;;;;;6.65;2.05;;;;;;;19.24;68.82;99488.28;4997969;28;20046;-47
2023/07/11 07:47:01;;;;;;;5.35;1.70;;;;;;;19.29;68.85;99484.59;5002283;28;20129;-46
2023/07/11 07:49:28;;;;;;;4.45;1.13;;;;;;;19.33;68.94;99487.00;5002009;28;20523;-51
2023/07/11 07:52:04;;;;;;;5.60;1.15;;;;;;;19.35;68.51;99481.69;5003478;28;20054;-47
2023/07/11 07:54:31;;;;;;;3.33;1.33;;;;;;;19.33;67.78;99473.88;5000153;28;20413;-47
2023/07/11 07:56:57;;;;;;;5.05;1.38;;;;;;;19.33;68.12;99473.00;5001360;28;20057;-52
2023/07/11 07:59:24;;;;;;;3.40;1.30;;;;;;;19.37;68.05;99471.94;5003057;28;20492;-46
2023/07/11 08:01:51;;;;;;;4.35;1.20;;;;;;;19.42;68.08;99469.91;5001512;28;20046;-47
2023/07/11 08:04:17;;;;;;;7.32;1.38;;;;;;;19.44;68.01;99478.59;5004260;28;20505;-51
2023/07/11 08:06:44;;;;;;;5.68;1.75;;;;;;;19.52;68.13;99484.31;4997343;28;20049;-47
2023/07/11 08:09:11;;;;;;;6.03;1.48;;;;;;;19.61;67.73;99487.41;5005447;28;20049;-53
2023/07/11 08:11:37;;;;;;;5.82;1.60;;;;;;;19.68;67.68;99490.56;5004679;28;20054;-49
2023/07/11 08:14:04;;;;;;;5.10;1.48;;;;;;;19.76;67.65;99491.91;5002273;28;20050;-49
2023/07/11 08:16:31;;;;;;;5.95;1.80;;;;;;;19.84;67.14;99494.16;4999632;28;20563;-46
2023/07/11 08:19:04;;;;;;;7.70;1.58;;;;;;;19.93;67.02;99486.72;4999688;28;20096;-48
2023/07/11 08:21:35;;;;;;;4.85;1.92;;;;;;;19.99;67.06;99478.53;4990642;28;20050;-50
2023/07/11 08:24:02;;;;;;;6.90;1.25;;;;;;;20.17;67.04;99484.66;5003266;28;20073;-50
2023/07/11 08:26:30;;;;;;;4.13;1.42;;;;;;;20.37;67.44;99506.41;4998807;28;20046;-47
2023/07/11 08:28:57;;;;;;;6.18;1.45;;;;;;;20.53;66.95;99490.66;4997422;28;20045;-43
2023/07/11 08:31:23;;;;;;;3.15;1.27;;;;;;;20.67;65.95;99489.94;4995363;28;20053;-46
2023/07/11 08:33:50;;;;;;;5.03;0.90;;;;;;;20.78;66.04;99482.28;4995122;28;20048;-45
2023/07/11 08:36:17;;;;;;;3.97;1.33;;;;;;;20.94;65.85;99494.66;5003285;28;20058;-50
2023/07/11 08:38:45;;;;;;;9.18;1.67;;;;;;;21.19;65.80;99488.03;5002022;28;20049;-47
2023/07/11 08:41:43;;;;;;;4.25;1.38;;;;;;;21.35;65.10;99474.00;4997450;28;20069;-45
2023/07/11 08:44:16;;;;;;;5.15;1.40;;;;;;;21.40;65.15;99480.69;5015883;28;20049;-45
2023/07/11 08:46:53;;;;;;;4.60;1.23;;;;;;;21.44;64.96;99479.59;4996807;28;20050;-44
2023/07/11 08:49:22;;;;;;;;;;;;;;;21.46;64.75;99490.03;4999909;28;20056;-51
2023/07/11 08:51:53;;;;;;;9.52;1.50;;;;;;;21.57;64.63;99485.00;4996466;28;19925;-42
2023/07/11 08:54:43;;;;;;;2.17;1.30;;;;;;;21.60;64.39;99469.94;4999573;28;20053;-52
2023/07/11 08:57:11;;;;;;;2.78;1.20;;;;;;;21.68;64.01;99467.69;5003530;28;20061;-50
2023/07/11 09:00:06;;;;;;;7.70;1.40;;;;;;;21.78;64.26;99478.59;4992876;28;20739;-48
2023/07/11 09:05:32;;;;;;;5.53;1.35;;;;;;;22.09;63.20;99474.13;5051449;27;20417;-45
2023/07/11 09:07:59;;;;;;;6.20;1.90;;;;;;;22.19;63.06;99471.78;5053366;28;20128;-51
2023/07/11 09:24:46;;;;;;;5.20;1.15;;;;;;;22.20;61.18;99463.78;5033033;28;20402;-50
2023/07/11 09:29:53;;;;;;;9.15;2.65;;;;;;;22.42;61.33;99458.94;5054636;27;20404;-47
2023/07/11 09:32:20;;;;;;;6.18;2.92;;;;;;;22.63;61.10;99455.97;5010349;28;20056;-44
2023/07/11 09:34:49;;;;;;;6.22;2.50;;;;;;;22.78;61.73;99457.63;4995925;28;20045;-43
2023/07/11 09:37:41;;;;;;;6.32;2.53;;;;;;;22.80;60.22;99471.56;4999100;28;20444;-49
2023/07/11 09:40:14;;;;;;;9.48;3.53;;;;;;;22.77;60.47;99486.78;4997308;28;20049;-51
2023/07/11 09:42:48;;;;;;;4.90;2.78;;;;;;;22.66;59.45;99476.91;4994336;28;20054;-53
2023/07/11 09:45:19;;;;;;;6.05;2.53;;;;;;;22.58;59.72;99478.22;4995049;28;20046;-46
2023/07/11 09:47:51;;;;;;;6.22;3.50;;;;;;;22.50;59.49;99474.31;4995444;28;20070;-45
2023/07/11 09:50:43;;;;;;;4.50;1.70;;;;;;;22.41;59.86;99465.19;4992607;28;22779;-53
2023/07/11 09:53:29;;;;;;;6.80;2.97;;;;;;;22.40;59.78;99469.63;4998150;28;20042;-53
2023/07/11 09:55:59;;;;;;;4.78;3.20;;;;;;;22.34;60.19;99470.84;4994914;28;20046;-46
2023/07/11 09:58:39;;;;;;;8.00;4.28;;;;;;;22.30;60.40;99477.25;4997252;28;20046;-44
2023/07/11 10:01:14;;;;;;;7.65;3.97;;;;;;;22.25;60.50;99475.84;4995522;28;20113;-47
2023/07/11 10:03:47;;;;;;;6.60;3.47;;;;;;;22.25;60.58;99476.66;4997038;28;20398;-50
2023/07/11 10:06:30;;;;;;;5.50;3.40;;;;;;;22.21;60.29;99475.16;4991832;28;20053;-52
2023/07/11 10:09:28;;;;;;;7.97;3.30;;;;;;;22.20;60.60;99487.53;5019543;28;20054;-51
2023/07/11 10:11:59;;;;;;;8.85;3.47;;;;;;;22.25;60.22;99474.03;4993585;28;20061;-54
2023/07/11 10:14:32;;;;;;;6.40;3.35;;;;;;;22.18;59.61;99475.34;4988127;28;20050;-45
2023/07/11 10:17:13;;;;;;;6.55;4.07;;;;;;;22.02;59.79;99468.34;4998814;28;20087;-46
2023/07/11 10:19:41;;;;;;;7.28;3.95;;;;;;;21.94;60.54;99462.69;5002492;28;20054;-52
2023/07/11 10:22:16;;;;;;;6.63;4.35;;;;;;;21.91;60.69;99461.09;4996017;28;20050;-48
2023/07/11 10:24:42;;;;;;;9.57;3.67;;;;;;;21.93;61.32;99455.75;5001990;28;20437;-54
2023/07/11 10:27:13;;;;;;;6.22;3.05;;;;;;;22.02;61.76;99455.19;5002933;28;20384;-51
2023/07/11 10:29:54;;;;;;;9.05;4.10;;;;;;;22.15;62.54;99454.47;4992030;28;20130;-54
2023/07/11 10:32:32;;;;;;;4.88;2.47;;;;;;;22.38;62.49;99465.38;4992833;28;20049;-48
2023/07/11 10:35:02;;;;;;;7.32;3.22;;;;;;;22.66;62.96;99453.13;4998495;28;20050;-46
2023/07/11 10:37:53;;;;;;;7.93;3.03;;;;;;;22.79;61.50;99450.53;4988802;28;20604;-46
2023/07/11 10:40:27;;;;;;;7.47;3.13;;;;;;;22.81;61.09;99446.88;4994354;28;20125;-47
2023/07/11 10:43:19;;;;;;;8.60;3.22;;;;;;;22.81;60.59;99462.72;4974435;28;20127;-48
2023/07/11 10:45:50;;;;;;;8.55;3.20;;;;;;;22.83;61.04;99455.53;4980263;28;20046;-55
2023/07/11 10:51:12;;;;;;;6.82;1.83;;;;;;;22.97;59.81;99432.69;5040386;27;20998;-52
2023/07/11 10:53:44;;;;;;;5.30;1.27;;;;;;;22.95;59.69;99445.16;5020733;28;20059;-51
2023/07/11 10:58:54;;;;;;;6.80;1.90;;;;;;;22.71;58.90;99451.06;5016129;28;20411;-51
2023/07/11 11:04:45;;;;;;;7.97;2.55;;;;;;;22.51;58.96;99453.13;5069662;27;20392;-54
2023/07/11 11:07:43;;;;;;;10.48;2.15;;;;;;;22.53;58.49;99445.94;5039505;28;20055;-51
2023/07/11 11:19:04;;;;;;;8.60;2.33;;;;;;;22.84;57.43;99430.81;5044174;28;20767;-47
2023/07/11 11:27:33;;;;;;;8.95;1.80;;;;;;;22.83;57.64;99425.69;5026277;27;20395;-46
2023/07/11 11:33:09;;;;;;;9.00;3.03;;;;;;;22.86;57.78;99422.81;5069086;27;20887;-51
2023/07/11 11:35:53;;;;;;;7.80;2.83;;;;;;;22.79;57.20;99427.66;4997947;28;20481;-46
2023/07/11 11:41:17;;;;;;;6.55;1.42;;;;;;;22.70;57.38;99415.06;5007859;28;20411;-44
2023/07/11 11:43:47;;;;;;;5.80;1.65;;;;;;;22.64;57.05;99412.78;4999583;28;20049;-48
2023/07/11 11:46:18;;;;;;;4.82;1.60;;;;;;;22.56;57.53;99419.41;4992496;28;20047;-48
2023/07/11 11:48:52;;;;;;;6.47;1.50;;;;;;;22.47;57.23;99427.88;4982143;28;20051;-48
2023/07/11 11:51:23;;;;;;;4.75;1.55;;;;;;;22.39;56.89;99420.41;4980048;28;20486;-45
2023/07/11 11:56:44;;;;;;;7.90;2.55;;;;;;;22.82;56.85;99416.91;5022891;28;20427;-47
2023/07/11 11:59:19;;;;;;;10.00;2.75;;;;;;;22.56;56.77;99416.75;5007257;28;20046;-45
2023/07/11 12:12:25;;;;;;;7.45;2.60;;;;;;;22.54;56.62;99413.34;5034913;28;20397;-56
2023/07/11 12:25:28;;;;;;;3.33;1.30;;;;;;;22.48;56.20;99397.91;5054704;27;20775;-52
2023/07/11 12:36:07;;;;;;;4.18;1.08;;;;;;;22.47;55.95;99406.75;5029040;28;20412;-46
2023/07/11 12:38:44;;;;;;;4.00;1.60;;;;;;;22.46;56.37;99402.44;5021714;28;20041;-51
2023/07/11 12:44:10;;;;;;;4.88;1.55;;;;;;;22.57;56.73;99402.66;5021033;28;20514;-49
2023/07/11 12:46:36;;;;;;;5.00;1.38;;;;;;;22.60;56.55;99397.16;4998444;28;20049;-47
2023/07/11 12:49:13;;;;;;;5.35;1.35;;;;;;;22.68;56.82;99395.81;5000835;28;20085;-49
2023/07/11 12:51:40;;;;;;;6.35;1.63;;;;;;;22.74;57.09;99387.50;5005166;28;20065;-48
2023/07/11 12:56:51;;;;;;;6.18;1.85;;;;;;;22.79;56.13;99385.41;5015287;27;20438;-46
2023/07/11 13:02:01;;;;;;;6.43;2.35;;;;;;;22.79;55.24;99369.56;5024657;28;20410;-47
2023/07/11 13:07:11;;;;;;;10.52;1.85;;;;;;;22.74;55.52;99376.94;5028041;27;20416;-50
2023/07/11 13:09:56;;;;;;;5.00;1.33;;;;;;;22.62;55.45;99381.22;4979778;28;20418;-47
2023/07/11 13:12:30;;;;;;;5.18;2.10;;;;;;;22.60;55.61;99381.31;4979752;28;20526;-42
2023/07/11 13:15:04;;;;;;;5.38;1.05;;;;;;;22.58;55.15;99363.88;4979741;28;20566;-48
2023/07/11 13:17:32;;;;;;;4.60;1.45;;;;;;;22.62;55.71;99383.84;4983779;28;20046;-52
2023/07/11 13:20:00;;;;;;;6.65;1.50;;;;;;;22.69;55.51;99368.47;4983232;28;20046;-47
2023/07/11 13:22:27;;;;;;;6.95;1.73;;;;;;;22.84;55.77;99378.03;4980337;28;20058;-47